Time;durP1;ratioP1;P1;durP2;ratioP2;P2;SDS_P1;SDS_P2;PMS_P1;PMS_P2;Temp;Humidity;BMP_temperature;BMP_pressure;BME280_temperature;BME280_humidity;BME280_pressure;Samples;Min_cycle;Max_cycle;Signal;HPM_P1;HPM_P2
2023/04/08 00:01:30;;;;;;;100.53;49.92;;;;;;;19.17;60.79;98978.31;4946304;29;20150;-59
2023/04/08 00:04:00;;;;;;;107.03;48.95;;;;;;;19.13;60.82;98971.81;4941325;28;20055;-60
2023/04/08 00:06:30;;;;;;;89.72;50.25;;;;;;;19.14;60.74;98968.06;4944759;28;20055;-60
2023/04/08 00:08:59;;;;;;;104.03;51.60;;;;;;;19.10;60.58;98977.69;4941328;29;20047;-59
2023/04/08 00:11:29;;;;;;;90.20;49.17;;;;;;;19.09;61.15;98978.72;4941514;29;20055;-58
2023/04/08 00:13:59;;;;;;;94.10;52.03;;;;;;;19.08;60.93;98980.59;4942991;28;20051;-59
2023/04/08 00:16:29;;;;;;;100.70;51.70;;;;;;;19.10;61.42;98981.19;4943587;29;20051;-60
2023/04/08 00:18:58;;;;;;;93.60;51.38;;;;;;;19.10;61.53;98993.78;4927752;29;20150;-60
2023/04/08 00:21:28;;;;;;;95.05;52.22;;;;;;;19.05;61.70;98988.31;4945032;29;20059;-59
2023/04/08 00:23:58;;;;;;;96.00;50.03;;;;;;;19.02;61.46;98983.44;4938464;29;20072;-60
2023/04/08 00:26:27;;;;;;;91.47;50.78;;;;;;;19.03;61.65;98985.84;4938705;29;20479;-59
2023/04/08 00:28:56;;;;;;;96.03;50.53;;;;;;;19.01;61.45;98987.16;4941894;29;20126;-59
2023/04/08 00:31:26;;;;;;;99.65;50.80;;;;;;;18.96;59.95;98981.69;4945837;28;20130;-59
2023/04/08 00:33:57;;;;;;;89.78;49.78;;;;;;;18.95;61.61;98985.44;4942540;29;20075;-59
2023/04/08 00:36:27;;;;;;;107.65;51.08;;;;;;;18.94;61.21;98989.19;4943619;28;20147;-59
2023/04/08 00:38:56;;;;;;;85.20;48.63;;;;;;;18.86;60.94;98987.69;4929328;29;20051;-60
2023/04/08 00:41:26;;;;;;;100.15;51.42;;;;;;;18.95;61.40;98999.66;4942441;29;20070;-59
2023/04/08 00:43:56;;;;;;;89.13;51.67;;;;;;;18.94;61.23;99002.63;4944143;28;20051;-59
2023/04/08 00:46:25;;;;;;;80.90;49.28;;;;;;;18.95;61.15;99001.53;4942607;29;20043;-59
2023/04/08 00:48:55;;;;;;;86.70;47.90;;;;;;;18.95;61.12;98999.66;4945808;29;20134;-58
2023/04/08 00:51:24;;;;;;;78.88;46.00;;;;;;;18.97;61.01;99004.81;4927225;29;20044;-59
2023/04/08 00:53:54;;;;;;;83.38;44.85;;;;;;;18.99;60.72;99002.69;4946054;28;20039;-59
2023/04/08 00:56:24;;;;;;;79.35;43.00;;;;;;;19.01;60.21;99003.28;4923246;29;20467;-60
2023/04/08 00:58:55;;;;;;;70.28;39.78;;;;;;;19.05;59.54;99009.78;4946184;29;20051;-59
2023/04/08 01:01:27;;;;;;;74.28;39.78;;;;;;;19.09;59.33;99006.38;4945743;28;20039;-59
2023/04/08 01:04:23;;;;;;;68.95;37.83;;;;;;;19.14;59.19;99009.16;4916325;29;20142;-60
2023/04/08 01:07:14;;;;;;;56.70;33.97;;;;;;;19.19;59.15;99011.13;4927687;29;20793;-60
2023/04/08 01:09:51;;;;;;;63.63;33.08;;;;;;;19.23;58.27;99012.28;4944008;29;20047;-59
2023/04/08 01:12:28;;;;;;;56.38;31.92;;;;;;;19.29;58.56;99014.81;4939318;28;20051;-60
2023/04/08 01:15:10;;;;;;;59.70;33.13;;;;;;;19.38;57.63;99020.63;4941346;29;20070;-59
2023/04/08 01:17:41;;;;;;;54.38;30.25;;;;;;;19.46;58.58;99022.13;4942310;28;20131;-59
2023/04/08 01:20:13;;;;;;;50.13;27.98;;;;;;;19.54;57.57;99021.72;4945434;28;20079;-59
2023/04/08 01:23:00;;;;;;;49.30;28.83;;;;;;;19.64;57.62;99025.44;4941303;29;20046;-59
2023/04/08 01:25:39;;;;;;;50.85;28.88;;;;;;;19.72;57.09;99026.88;4939187;29;21605;-59
2023/04/08 01:28:15;;;;;;;47.63;27.45;;;;;;;19.78;55.74;99028.63;4928875;29;20047;-60
2023/04/08 01:30:46;;;;;;;48.72;26.88;;;;;;;19.85;55.19;99031.94;4924126;29;20047;-59
2023/04/08 01:33:18;;;;;;;54.35;27.40;;;;;;;19.95;55.50;99025.91;4945813;29;20051;-59
2023/04/08 01:35:47;;;;;;;55.55;27.52;;;;;;;20.02;56.02;99030.06;4932863;29;20328;-60
2023/04/08 01:38:19;;;;;;;54.75;26.35;;;;;;;20.13;55.14;99036.41;4926636;29;20392;-60
2023/04/08 01:40:50;;;;;;;50.38;24.83;;;;;;;20.22;54.08;99040.31;4938026;28;20047;-59
2023/04/08 01:43:20;;;;;;;47.28;23.83;;;;;;;20.34;54.81;99034.88;4931447;29;20055;-59
2023/04/08 01:45:53;;;;;;;44.58;23.58;;;;;;;20.45;53.45;99042.00;4941997;28;20047;-59
2023/04/08 01:48:22;;;;;;;;;;;;;;;20.57;52.18;99037.34;4924672;29;20063;-59
2023/04/08 01:50:53;;;;;;;38.10;20.30;;;;;;;20.71;53.15;99040.50;4921301;29;20395;-59
2023/04/08 01:53:23;;;;;;;33.50;19.50;;;;;;;20.85;51.97;99039.03;4944819;29;20055;-59
2023/04/08 01:56:00;;;;;;;37.97;19.25;;;;;;;20.98;51.66;99046.72;4941158;28;20040;-60
2023/04/08 01:58:38;;;;;;;40.28;18.88;;;;;;;21.15;51.91;99044.84;4944690;29;20058;-60
2023/04/08 02:01:13;;;;;;;36.92;19.60;;;;;;;21.33;51.43;99044.47;4924812;29;20051;-59
2023/04/08 02:03:44;;;;;;;37.63;19.42;;;;;;;21.52;48.91;99043.06;4943237;28;20531;-58
2023/04/08 02:06:14;;;;;;;41.88;20.20;;;;;;;21.69;50.08;99042.94;4942695;28;20070;-59
2023/04/08 02:08:45;;;;;;;33.90;19.00;;;;;;;21.93;50.63;99055.06;4933038;29;20727;-60
2023/04/08 02:11:15;;;;;;;40.17;19.27;;;;;;;22.24;49.77;99056.09;4931008;29;20567;-59
2023/04/08 02:13:44;;;;;;;36.53;18.77;;;;;;;22.90;47.85;99047.59;4930936;29;20046;-59
2023/04/08 02:16:33;;;;;;;47.08;19.83;;;;;;;24.42;44.08;99052.16;4953766;28;20853;-60
2023/04/08 02:19:17;;;;;;;39.90;19.95;;;;;;;25.69;40.99;99055.16;4941381;29;20070;-58
2023/04/08 02:21:54;;;;;;;43.65;20.60;;;;;;;26.59;37.72;99055.50;4949042;29;20039;-59
2023/04/08 02:24:27;;;;;;;56.35;22.92;;;;;;;27.39;37.79;99060.25;4936968;29;20043;-60
2023/04/08 02:27:03;;;;;;;39.63;21.50;;;;;;;27.85;37.32;99063.91;4948797;28;20748;-60
2023/04/08 02:29:35;;;;;;;45.03;21.77;;;;;;;28.14;36.09;99069.22;4948908;28;20043;-61
2023/04/08 02:32:05;;;;;;;45.03;21.77;;;;;;;28.82;34.50;99073.97;4963129;28;20047;-60
2023/04/08 02:34:36;;;;;;;37.55;22.05;;;;;;;29.27;33.96;99080.41;4948911;28;20051;-59
2023/04/08 02:37:06;;;;;;;40.78;21.98;;;;;;;29.56;35.61;99072.72;4934964;29;20075;-59
2023/04/08 02:39:36;;;;;;;39.83;22.45;;;;;;;29.36;35.08;99082.16;4943957;28;20540;-60
2023/04/08 02:42:05;;;;;;;45.35;23.88;;;;;;;29.06;36.43;99084.69;4942792;28;20050;-60
2023/04/08 02:44:37;;;;;;;48.30;26.55;;;;;;;28.68;36.83;99089.50;4916436;29;20531;-61
2023/04/08 02:47:06;;;;;;;55.85;30.58;;;;;;;28.17;36.29;99084.94;4943239;29;20039;-61
2023/04/08 02:49:36;;;;;;;47.25;28.85;;;;;;;27.98;38.32;99089.59;4948207;29;20055;-61
2023/04/08 02:52:05;;;;;;;55.38;30.63;;;;;;;27.77;38.85;99088.28;4927042;29;20871;-60
2023/04/08 02:54:34;;;;;;;56.72;30.95;;;;;;;27.56;38.52;99093.22;4940246;28;20054;-60
2023/04/08 02:57:04;;;;;;;59.97;30.60;;;;;;;27.18;39.27;99101.28;4954343;28;20099;-60
2023/04/08 02:59:36;;;;;;;58.35;31.60;;;;;;;27.01;40.67;99098.25;4938977;28;20046;-59
2023/04/08 03:02:05;;;;;;;65.50;32.65;;;;;;;26.81;39.76;99091.13;4948176;29;20138;-61
2023/04/08 03:04:35;;;;;;;51.22;30.63;;;;;;;26.70;41.38;99105.09;4938383;28;20058;-61
2023/04/08 03:07:05;;;;;;;62.65;31.65;;;;;;;26.45;39.63;99097.19;4947580;28;20632;-62
2023/04/08 03:09:35;;;;;;;51.67;30.25;;;;;;;26.19;39.73;99108.25;4948142;29;20058;-59
2023/04/08 03:12:05;;;;;;;58.58;28.45;;;;;;;26.17;40.88;99107.72;4949590;28;20123;-58
2023/04/08 03:14:34;;;;;;;51.63;25.92;;;;;;;26.34;42.66;99112.78;4947930;28;20047;-58
2023/04/08 03:17:04;;;;;;;54.97;26.10;;;;;;;26.23;40.28;99113.97;4947533;28;20112;-59
2023/04/08 03:19:33;;;;;;;49.55;24.63;;;;;;;26.29;41.79;99110.09;4944725;28;21170;-59
2023/04/08 03:22:02;;;;;;;47.00;24.80;;;;;;;26.29;41.27;99107.38;4947986;29;20055;-61
2023/04/08 03:24:32;;;;;;;47.65;24.77;;;;;;;26.32;39.84;99114.97;4943863;29;20039;-61
2023/04/08 03:27:02;;;;;;;50.65;25.38;;;;;;;26.40;39.91;99111.63;4943519;28;20142;-60
2023/04/08 03:29:31;;;;;;;40.90;24.55;;;;;;;26.47;38.86;99111.28;4947755;29;20054;-60
2023/04/08 03:32:01;;;;;;;41.88;23.15;;;;;;;26.24;43.09;99116.41;4944426;29;20055;-60
2023/04/08 03:34:31;;;;;;;48.65;23.35;;;;;;;26.23;40.47;99119.41;4947802;29;20106;-59
2023/04/08 03:37:00;;;;;;;50.63;23.15;;;;;;;26.28;41.92;99113.94;4943928;29;20138;-60
2023/04/08 03:39:30;;;;;;;43.92;24.38;;;;;;;26.23;39.42;99122.94;4943398;29;20504;-60
2023/04/08 03:42:00;;;;;;;46.55;23.92;;;;;;;26.17;39.50;99123.19;4944980;29;20057;-60
2023/04/08 03:44:29;;;;;;;47.65;23.75;;;;;;;26.24;41.26;99123.75;4943861;28;20051;-60
2023/04/08 03:46:58;;;;;;;40.65;23.50;;;;;;;26.23;40.59;99127.53;4947827;29;20047;-60
2023/04/08 03:49:28;;;;;;;41.60;24.50;;;;;;;26.23;39.79;99128.34;4947542;29;20464;-60
2023/04/08 03:51:57;;;;;;;45.25;23.90;;;;;;;26.21;39.97;99121.56;4943676;28;20039;-59
2023/04/08 03:54:26;;;;;;;45.55;26.27;;;;;;;26.25;42.13;99122.63;4946649;28;20733;-62
2023/04/08 03:56:55;;;;;;;50.33;26.33;;;;;;;26.18;40.61;99125.66;4947910;28;20067;-60
2023/04/08 03:59:25;;;;;;;49.35;24.45;;;;;;;26.29;40.16;99131.81;4948108;28;20047;-59
2023/04/08 04:01:55;;;;;;;50.65;23.02;;;;;;;26.38;39.37;99134.75;4942501;29;20704;-59
2023/04/08 04:04:24;;;;;;;47.30;23.65;;;;;;;26.35;39.00;99128.78;4947741;28;20047;-60
2023/04/08 04:06:54;;;;;;;42.85;22.55;;;;;;;26.39;39.38;99131.75;4945872;28;20051;-60
2023/04/08 04:09:24;;;;;;;39.25;21.40;;;;;;;26.38;38.53;99133.66;4946291;28;20039;-60
2023/04/08 04:11:54;;;;;;;41.05;20.73;;;;;;;26.40;39.30;99127.94;4942301;29;20062;-58
2023/04/08 04:14:23;;;;;;;35.15;19.23;;;;;;;26.44;40.06;99139.03;4944585;29;20151;-59
2023/04/08 04:16:52;;;;;;;36.95;19.75;;;;;;;26.48;37.60;99138.19;4940386;28;20485;-59
2023/04/08 04:19:22;;;;;;;37.60;20.00;;;;;;;26.59;39.00;99137.00;4947696;28;20153;-61
2023/04/08 04:21:51;;;;;;;32.05;18.52;;;;;;;26.70;36.88;99135.78;4926735;29;20106;-61
2023/04/08 04:24:21;;;;;;;33.75;18.10;;;;;;;26.88;36.06;99136.19;4948224;28;20047;-61
2023/04/08 04:26:50;;;;;;;30.30;17.75;;;;;;;27.00;37.08;99137.41;4949701;28;20047;-60
2023/04/08 04:29:20;;;;;;;36.95;18.23;;;;;;;27.19;37.62;99135.56;4946389;28;20442;-59
2023/04/08 04:31:50;;;;;;;33.53;18.67;;;;;;;27.49;37.15;99139.03;4928538;29;20118;-60
2023/04/08 04:34:19;;;;;;;41.63;18.17;;;;;;;27.79;35.74;99138.63;4935032;28;20141;-58
2023/04/08 04:36:49;;;;;;;38.30;17.58;;;;;;;27.91;35.20;99147.16;4946815;28;20039;-63
2023/04/08 04:39:18;;;;;;;44.17;18.75;;;;;;;28.07;34.31;99145.00;4946552;29;20051;-62
2023/04/08 04:41:48;;;;;;;35.03;18.05;;;;;;;28.19;33.94;99144.59;4946039;29;20478;-61
2023/04/08 04:44:18;;;;;;;34.72;17.50;;;;;;;28.29;36.15;99145.22;4942368;29;20130;-63
2023/04/08 04:46:48;;;;;;;36.13;17.83;;;;;;;28.45;34.65;99152.06;4943167;29;20039;-61
2023/04/08 04:49:17;;;;;;;29.23;17.70;;;;;;;28.67;36.25;99150.59;4926571;29;20070;-64
2023/04/08 04:51:48;;;;;;;32.08;17.15;;;;;;;28.92;36.65;99150.97;4944081;29;20043;-61
2023/04/08 04:54:17;;;;;;;32.53;17.10;;;;;;;29.02;36.46;99149.97;4943562;28;20055;-61
2023/04/08 04:56:46;;;;;;;27.20;15.18;;;;;;;29.27;36.64;99152.19;4945693;29;20051;-62
2023/04/08 04:59:15;;;;;;;31.48;15.50;;;;;;;29.41;37.17;99150.28;4943417;29;20130;-60
2023/04/08 05:01:45;;;;;;;33.05;15.15;;;;;;;29.54;36.13;99153.28;4944266;29;20137;-60
2023/04/08 05:04:15;;;;;;;31.90;14.13;;;;;;;29.61;33.56;99151.75;4945890;28;20083;-59
2023/04/08 05:06:44;;;;;;;20.80;11.95;;;;;;;29.72;36.25;99155.09;4944706;28;20158;-62
2023/04/08 05:09:14;;;;;;;23.98;10.10;;;;;;;29.97;36.97;99153.72;4929136;29;20423;-61
2023/04/08 05:11:44;;;;;;;15.82;8.60;;;;;;;29.96;33.75;99152.94;4945788;28;20138;-61
2023/04/08 05:14:13;;;;;;;20.90;8.90;;;;;;;30.15;33.46;99156.28;4599829;29;9999994;-60
2023/04/08 05:16:43;;;;;;;21.98;9.30;;;;;;;30.73;31.38;99156.22;4943384;29;20051;-58
2023/04/08 05:19:12;;;;;;;21.83;8.85;;;;;;;31.08;32.17;99154.50;4942911;29;20055;-61
2023/04/08 05:21:42;;;;;;;24.52;8.27;;;;;;;31.49;32.49;99151.41;4940676;29;20051;-58
2023/04/08 05:24:11;;;;;;;26.17;9.63;;;;;;;31.76;30.35;99155.03;4939627;29;20126;-59
2023/04/08 05:26:41;;;;;;;23.02;9.80;;;;;;;32.01;27.58;99154.22;4940092;29;20071;-57
2023/04/08 05:29:10;;;;;;;25.30;8.15;;;;;;;32.24;28.81;99155.69;4942128;29;20047;-57
2023/04/08 05:31:40;;;;;;;22.67;7.97;;;;;;;32.05;28.39;99147.78;4940889;29;20052;-59
2023/04/08 05:34:10;;;;;;;19.65;7.20;;;;;;;32.35;28.96;99143.25;4941327;29;20043;-59
2023/04/08 05:36:39;;;;;;;23.08;8.57;;;;;;;32.58;30.99;99148.53;4938573;28;20047;-56
2023/04/08 05:39:09;;;;;;;19.98;7.07;;;;;;;32.53;24.95;99149.50;4942124;28;20129;-58
2023/04/08 05:41:38;;;;;;;15.82;7.10;;;;;;;32.24;28.89;99143.94;4946035;29;20035;-60
2023/04/08 05:44:07;;;;;;;18.25;6.22;;;;;;;32.52;30.84;99146.00;4939592;28;20051;-63
2023/04/08 05:46:37;;;;;;;17.00;6.00;;;;;;;32.35;30.31;99143.25;4946956;28;20047;-62
2023/04/08 05:49:07;;;;;;;18.40;5.70;;;;;;;32.70;25.50;99141.31;4946776;28;20093;-60
2023/04/08 05:51:38;;;;;;;15.82;5.82;;;;;;;32.72;29.45;99144.50;4947671;28;20146;-61
2023/04/08 05:54:08;;;;;;;25.75;6.72;;;;;;;32.90;27.30;99132.34;4947884;28;20109;-61
2023/04/08 05:56:38;;;;;;;15.98;4.80;;;;;;;32.71;24.63;99131.91;4949129;28;20054;-61
2023/04/08 05:59:07;;;;;;;14.10;5.53;;;;;;;32.84;23.88;99135.63;4946460;29;20534;-61
2023/04/08 06:01:37;;;;;;;14.70;4.28;;;;;;;32.80;23.48;99142.84;4945994;29;20482;-62
2023/04/08 06:04:07;;;;;;;7.65;4.30;;;;;;;32.82;25.48;99138.66;4924120;29;20047;-64
2023/04/08 06:06:40;;;;;;;17.40;5.85;;;;;;;32.98;26.00;99133.44;4945618;29;20051;-61
2023/04/08 06:09:09;;;;;;;12.85;4.70;;;;;;;33.05;26.61;99127.44;4946234;29;20047;-63
2023/04/08 06:11:39;;;;;;;6.72;4.47;;;;;;;33.17;25.09;99128.38;4927272;29;20052;-63
2023/04/08 06:14:08;;;;;;;21.02;6.40;;;;;;;32.74;22.98;99123.06;4945180;29;20052;-60
2023/04/08 06:16:37;;;;;;;15.43;7.18;;;;;;;32.57;25.88;99119.53;4947622;29;20098;-62
2023/04/08 06:19:07;;;;;;;16.30;7.28;;;;;;;32.85;27.81;99121.53;4947168;29;20055;-62
2023/04/08 06:21:36;;;;;;;16.60;6.55;;;;;;;32.57;28.72;99116.78;4946657;29;20486;-63
2023/04/08 06:24:06;;;;;;;24.88;7.13;;;;;;;32.51;25.84;99110.66;4946252;29;20047;-63
2023/04/08 06:26:35;;;;;;;14.70;6.03;;;;;;;32.62;26.57;99109.19;4930289;28;20412;-60
2023/04/08 06:29:05;;;;;;;12.98;4.82;;;;;;;32.71;24.29;99115.44;4947746;28;20047;-61
2023/04/08 06:31:34;;;;;;;8.77;3.42;;;;;;;32.73;23.44;99107.72;4948824;28;20138;-61
2023/04/08 06:34:12;;;;;;;8.38;3.92;;;;;;;32.50;22.80;99109.03;4947583;28;20653;-64
2023/04/08 06:36:45;;;;;;;14.63;4.90;;;;;;;32.56;25.18;99107.75;4931558;28;20043;-62
2023/04/08 06:39:15;;;;;;;12.85;4.65;;;;;;;32.79;22.04;99102.84;4947298;28;20106;-64
2023/04/08 06:41:45;;;;;;;6.60;4.10;;;;;;;32.92;23.31;99099.91;4942941;29;20697;-65
2023/04/08 06:44:35;;;;;;;14.63;4.82;;;;;;;32.88;24.92;99098.91;4941693;29;20171;-60
2023/04/08 06:47:05;;;;;;;21.30;5.20;;;;;;;32.92;25.67;99096.34;4598595;29;10001190;-63
2023/04/08 06:49:36;;;;;;;13.02;6.05;;;;;;;33.01;24.71;99096.31;4934103;29;20425;-61
2023/04/08 06:52:05;;;;;;;21.02;6.15;;;;;;;33.06;25.63;99090.63;4941924;28;20118;-59
2023/04/08 06:54:35;;;;;;;14.18;5.63;;;;;;;32.85;22.25;99094.09;4938946;29;20047;-59
2023/04/08 06:57:05;;;;;;;11.60;5.45;;;;;;;32.71;23.43;99093.50;4943783;28;20051;-60
2023/04/08 06:59:35;;;;;;;16.67;5.45;;;;;;;32.70;25.89;99089.19;4945357;28;20061;-61
2023/04/08 07:02:04;;;;;;;11.30;5.38;;;;;;;32.48;23.51;99081.16;4942934;29;20138;-62
2023/04/08 07:04:33;;;;;;;9.93;5.13;;;;;;;32.77;20.93;99080.41;4942039;29;20062;-59
2023/04/08 07:07:03;;;;;;;13.38;5.07;;;;;;;33.06;24.32;99071.41;4941434;29;20107;-61
2023/04/08 07:09:35;;;;;;;11.50;4.82;;;;;;;33.08;24.06;99083.66;4933118;28;20805;-61
2023/04/08 07:12:05;;;;;;;12.05;5.53;;;;;;;32.72;24.15;99072.38;4944982;28;20495;-61
2023/04/08 07:14:34;;;;;;;14.07;4.82;;;;;;;32.66;24.32;99079.19;4940306;29;20743;-61
2023/04/08 07:17:04;;;;;;;16.05;5.00;;;;;;;32.72;24.31;99073.19;4945534;29;20072;-63
2023/04/08 07:19:35;;;;;;;10.18;4.97;;;;;;;32.61;22.35;99082.88;4947410;28;20051;-62
2023/04/08 07:22:04;;;;;;;11.70;4.20;;;;;;;32.38;23.09;99065.03;4944986;28;20047;-61
2023/04/08 07:24:33;;;;;;;8.50;4.00;;;;;;;32.24;25.75;99050.72;4945245;29;20637;-62
2023/04/08 07:27:03;;;;;;;9.30;3.65;;;;;;;32.60;24.27;99070.28;4945101;29;20055;-63
2023/04/08 07:29:33;;;;;;;8.38;2.75;;;;;;;32.72;23.15;99066.88;4943743;29;20051;-63
2023/04/08 07:32:02;;;;;;;8.35;3.70;;;;;;;32.75;22.43;99067.03;4943190;28;20055;-58
2023/04/08 07:34:33;;;;;;;11.82;3.95;;;;;;;32.79;25.20;99064.44;4939839;29;20142;-61
2023/04/08 07:37:03;;;;;;;7.57;3.90;;;;;;;32.79;23.03;99067.19;4942037;28;20047;-58
2023/04/08 07:39:32;;;;;;;10.80;4.53;;;;;;;32.53;22.62;99054.31;4942944;28;20064;-60
2023/04/08 07:42:02;;;;;;;13.88;4.32;;;;;;;32.58;23.01;99055.28;4942234;28;20110;-58
2023/04/08 07:44:31;;;;;;;8.75;4.38;;;;;;;32.61;25.34;99055.44;4595432;28;9999714;-64
2023/04/08 07:47:01;;;;;;;13.50;4.25;;;;;;;32.59;23.26;99049.47;4943670;29;20114;-65
2023/04/08 07:49:30;;;;;;;10.70;4.72;;;;;;;32.15;20.51;99052.66;4945619;28;20055;-61
2023/04/08 07:51:59;;;;;;;14.93;5.18;;;;;;;32.28;22.26;99048.94;4930598;28;20050;-62
2023/04/08 07:54:33;;;;;;;17.58;5.78;;;;;;;32.59;25.41;99045.91;4937261;28;20047;-65
2023/04/08 07:57:02;;;;;;;16.25;5.72;;;;;;;32.57;22.83;99043.53;4941180;29;20055;-64
2023/04/08 07:59:32;;;;;;;12.73;6.05;;;;;;;32.06;20.86;99033.47;4943166;29;20114;-61
2023/04/08 08:02:01;;;;;;;13.68;6.25;;;;;;;32.23;21.55;99029.91;4944428;29;20172;-62
2023/04/08 08:04:31;;;;;;;12.80;5.40;;;;;;;32.34;22.86;99033.94;4926733;29;20447;-59
2023/04/08 08:07:01;;;;;;;8.60;4.88;;;;;;;32.36;22.90;99026.16;4944521;29;20499;-64
2023/04/08 08:09:31;;;;;;;14.75;5.32;;;;;;;32.41;21.27;99031.47;4944681;29;20109;-58
2023/04/08 08:12:00;;;;;;;10.25;4.50;;;;;;;32.39;20.78;99026.34;4942890;29;20062;-58
2023/04/08 08:14:29;;;;;;;6.68;3.97;;;;;;;32.26;20.65;99016.38;4943481;29;20047;-58
2023/04/08 08:17:00;;;;;;;8.77;3.65;;;;;;;32.10;22.77;99018.00;4944203;29;20043;-57
2023/04/08 08:19:30;;;;;;;10.82;4.28;;;;;;;31.97;22.61;99016.25;4926926;29;20050;-59
2023/04/08 08:21:59;;;;;;;13.68;4.18;;;;;;;32.09;20.76;99016.41;4939003;29;20051;-58
2023/04/08 08:24:29;;;;;;;8.15;4.10;;;;;;;31.87;22.52;99014.63;4935414;29;20059;-53
2023/04/08 08:27:00;;;;;;;8.05;4.10;;;;;;;31.88;20.65;99010.78;4938360;29;20067;-61
2023/04/08 08:29:29;;;;;;;11.32;4.93;;;;;;;31.97;23.15;99000.59;4589490;28;10000197;-61
2023/04/08 08:31:59;;;;;;;11.13;4.07;;;;;;;32.00;24.77;99005.44;4942497;29;20515;-60
2023/04/08 08:34:29;;;;;;;12.85;3.40;;;;;;;32.04;20.65;99003.63;4936482;28;20047;-61
2023/04/08 08:36:58;;;;;;;6.72;3.90;;;;;;;32.09;21.95;98998.03;4937760;28;20535;-61
2023/04/08 08:39:28;;;;;;;13.07;4.18;;;;;;;32.13;22.55;98997.38;4941749;28;20107;-61
2023/04/08 08:41:57;;;;;;;13.05;3.63;;;;;;;32.10;23.20;98990.59;4945719;29;20058;-60
2023/04/08 08:44:27;;;;;;;7.93;3.10;;;;;;;32.09;21.68;98984.31;4942366;29;20454;-61
2023/04/08 08:46:56;;;;;;;9.85;4.65;;;;;;;32.08;22.17;98987.38;4940787;28;20051;-63
2023/04/08 08:49:26;;;;;;;8.82;4.05;;;;;;;31.89;21.30;98982.25;4925461;29;20065;-62
2023/04/08 08:51:58;;;;;;;17.08;4.57;;;;;;;31.70;19.48;98973.56;4942380;29;20059;-61
2023/04/08 08:54:27;;;;;;;9.35;4.18;;;;;;;31.40;19.04;98978.09;4942519;29;20051;-62
2023/04/08 08:56:57;;;;;;;11.60;3.80;;;;;;;31.48;22.89;98973.72;4941739;29;20051;-59
2023/04/08 08:59:27;;;;;;;11.25;4.03;;;;;;;31.52;22.01;98970.03;4942787;29;20051;-60
2023/04/08 09:01:56;;;;;;;9.25;4.07;;;;;;;31.44;21.92;98962.63;4926161;29;20051;-60
2023/04/08 09:04:26;;;;;;;6.25;3.45;;;;;;;31.44;23.28;98959.06;4943068;29;20046;-60
2023/04/08 09:07:12;;;;;;;8.63;3.88;;;;;;;31.58;24.65;98957.81;4942169;29;20055;-60
2023/04/08 09:10:01;;;;;;;6.03;3.58;;;;;;;31.69;21.68;98955.53;4944933;29;20050;-62
2023/04/08 09:12:30;;;;;;;10.32;3.65;;;;;;;31.79;21.29;98952.44;4943750;29;20353;-61
2023/04/08 09:15:05;;;;;;;12.07;3.88;;;;;;;31.87;21.31;98948.06;4938977;28;20455;-59
2023/04/08 09:17:40;;;;;;;8.90;3.33;;;;;;;31.95;21.11;98945.34;4926703;29;20058;-58
2023/04/08 09:20:14;;;;;;;11.35;4.30;;;;;;;31.83;19.61;98953.41;4943978;29;20051;-59
2023/04/08 09:22:58;;;;;;;10.77;3.42;;;;;;;31.73;20.66;98937.34;4942220;29;20055;-58
2023/04/08 09:25:27;;;;;;;7.28;3.90;;;;;;;31.65;19.65;98929.91;4936688;29;20043;-62
2023/04/08 09:27:57;;;;;;;12.75;4.00;;;;;;;31.44;22.39;98934.44;4928081;28;20211;-63
2023/04/08 09:30:27;;;;;;;6.78;2.97;;;;;;;31.45;21.75;98936.84;4938207;28;20051;-64
2023/04/08 09:32:57;;;;;;;10.40;2.90;;;;;;;31.65;23.39;98935.41;4927736;28;20066;-64
2023/04/08 09:35:27;;;;;;;7.03;3.03;;;;;;;31.59;20.34;98925.75;4936328;28;20082;-62
2023/04/08 09:37:57;;;;;;;9.40;3.20;;;;;;;31.60;22.22;98928.16;4935175;29;20059;-62
2023/04/08 09:40:31;;;;;;;8.65;3.13;;;;;;;31.69;21.08;98922.66;4938789;29;20526;-65
2023/04/08 09:43:09;;;;;;;10.40;2.92;;;;;;;31.75;21.60;98921.38;4940332;29;20083;-70
2023/04/08 09:45:41;;;;;;;7.57;3.10;;;;;;;31.76;20.30;98919.44;4941064;29;20063;-62
2023/04/08 09:48:23;;;;;;;9.73;2.90;;;;;;;31.79;21.00;98921.50;4939117;29;20051;-62
2023/04/08 09:50:57;;;;;;;6.15;2.58;;;;;;;31.70;20.57;98910.56;4941449;29;20102;-63
2023/04/08 09:53:35;;;;;;;9.18;2.85;;;;;;;31.63;18.24;98904.81;4940004;28;20055;-62
2023/04/08 09:56:09;;;;;;;12.35;2.92;;;;;;;31.60;20.17;98906.25;4939605;28;20047;-63
2023/04/08 09:58:46;;;;;;;5.75;2.63;;;;;;;31.60;21.81;98908.22;4940352;29;20062;-64
2023/04/08 10:01:19;;;;;;;7.30;2.80;;;;;;;31.65;19.65;98908.00;4937906;29;20566;-64
2023/04/08 10:03:51;;;;;;;;;;;;;;;31.63;20.19;98908.34;4939055;28;20047;-65
2023/04/08 10:06:27;;;;;;;15.75;2.90;;;;;;;31.58;19.08;98903.03;4921045;29;19938;-60
2023/04/08 10:08:58;;;;;;;7.82;2.85;;;;;;;31.61;19.26;98901.56;4939958;29;20047;-65
2023/04/08 10:11:27;;;;;;;5.70;2.70;;;;;;;31.53;20.23;98907.84;4940840;29;20058;-65
2023/04/08 10:13:57;;;;;;;8.63;2.80;;;;;;;31.49;20.94;98893.19;4938508;29;20098;-65
2023/04/08 10:16:27;;;;;;;8.43;2.70;;;;;;;31.37;19.65;98891.13;4940946;29;20055;-64
2023/04/08 10:18:56;;;;;;;9.02;2.60;;;;;;;31.28;20.37;98898.56;4942333;29;20059;-63
2023/04/08 10:21:47;;;;;;;11.40;2.67;;;;;;;31.27;17.38;98893.38;4941113;29;20047;-65
2023/04/08 10:24:23;;;;;;;7.63;2.33;;;;;;;31.26;19.49;98887.09;4938809;28;20051;-66
2023/04/08 10:26:52;;;;;;;3.60;2.40;;;;;;;31.22;18.81;98886.16;4924874;28;20077;-64
2023/04/08 10:29:28;;;;;;;5.30;2.50;;;;;;;31.15;18.40;98885.84;4944737;29;20133;-61
2023/04/08 10:31:58;;;;;;;5.05;2.63;;;;;;;31.07;19.50;98873.75;4944639;28;20047;-60
2023/04/08 10:34:28;;;;;;;10.23;3.20;;;;;;;30.99;21.71;98876.47;4943610;28;20757;-63
2023/04/08 10:36:58;;;;;;;12.30;3.53;;;;;;;31.04;21.21;98882.63;4939903;28;20456;-65
2023/04/08 10:39:27;;;;;;;5.75;2.80;;;;;;;30.99;21.03;98880.00;4944773;29;20428;-63
2023/04/08 10:41:57;;;;;;;14.05;3.00;;;;;;;30.93;20.50;98880.50;4945222;29;20047;-64
2023/04/08 10:44:27;;;;;;;11.55;3.25;;;;;;;30.87;21.53;98882.59;4944416;29;20118;-66
2023/04/08 10:46:56;;;;;;;7.78;3.28;;;;;;;30.79;19.99;98872.44;4945215;29;20051;-65
2023/04/08 10:49:33;;;;;;;10.30;3.58;;;;;;;30.75;20.91;98874.22;4944580;28;20075;-67
2023/04/08 10:52:08;;;;;;;12.23;4.03;;;;;;;30.76;21.73;98870.34;4944396;28;20134;-67
2023/04/08 10:54:37;;;;;;;8.10;3.50;;;;;;;30.79;20.66;98858.78;4943346;29;20055;-65
2023/04/08 10:57:08;;;;;;;5.93;2.65;;;;;;;30.80;19.87;98859.59;4943993;29;20055;-61
2023/04/08 10:59:40;;;;;;;6.77;3.83;;;;;;;30.75;20.04;98855.06;4944053;29;20110;-66
2023/04/08 11:02:15;;;;;;;8.88;3.50;;;;;;;30.71;20.65;98852.16;4943621;29;20289;-62
2023/04/08 11:04:47;;;;;;;8.70;3.38;;;;;;;30.74;21.67;98857.00;4941166;29;20055;-61
2023/04/08 11:07:20;;;;;;;6.63;3.47;;;;;;;30.69;21.83;98848.13;4942117;29;20054;-63
2023/04/08 11:09:49;;;;;;;11.43;3.25;;;;;;;30.51;25.76;98847.31;4944988;29;20051;-62
2023/04/08 11:12:20;;;;;;;10.02;3.45;;;;;;;30.22;26.42;98847.88;4943508;29;20078;-63
2023/04/08 11:14:51;;;;;;;7.25;3.80;;;;;;;29.97;26.89;98851.31;4928401;29;20047;-62
2023/04/08 11:17:21;;;;;;;10.23;3.33;;;;;;;29.77;26.93;98849.13;4943313;29;20074;-64
2023/04/08 11:19:52;;;;;;;7.45;3.28;;;;;;;29.66;29.91;98854.03;4944282;29;20078;-63
2023/04/08 11:22:22;;;;;;;9.48;3.83;;;;;;;29.55;23.54;98841.78;4945346;29;20478;-64
2023/04/08 11:24:52;;;;;;;9.68;3.75;;;;;;;29.67;22.87;98838.47;4945304;29;20051;-61
2023/04/08 11:27:24;;;;;;;6.15;3.30;;;;;;;29.68;23.21;98838.16;4943738;29;20071;-64
2023/04/08 11:29:58;;;;;;;8.63;3.22;;;;;;;29.76;22.81;98840.13;4930295;29;20390;-64
2023/04/08 11:32:28;;;;;;;9.65;4.45;;;;;;;29.95;23.42;98841.84;4600153;29;10000529;-62
2023/04/08 11:35:03;;;;;;;11.70;3.92;;;;;;;29.97;23.28;98845.03;4942906;28;20043;-66
2023/04/08 11:37:40;;;;;;;9.73;3.53;;;;;;;29.96;24.20;98840.72;4940488;28;20066;-66
2023/04/08 11:40:11;;;;;;;7.72;3.40;;;;;;;29.89;23.77;98843.91;4943629;29;20058;-69
2023/04/08 11:42:42;;;;;;;13.88;3.75;;;;;;;29.91;23.97;98846.31;4937998;29;20055;-69